Terminal Aerodrome Forecast
Issued by NWS Buffalo, NY

Home | Current Version | Previous Version | Text Only | Print | Product List | Glossary On
Versions: 1 2 3 4 5 6 7 8 9 10 11 12 13 14 15 16 17 18 19 20 21 22 23 24 25 26 27 28 29 30
000
FTUS41 KBUF 020844 AAA
TAFART
TAF AMD
KART 020844Z 0209/0306 VRB03KT 2SM BR SCT003
      TEMPO 0209/0213 1/2SM FG BKN003
     FM021400 23005KT P6SM BKN015
     FM021700 24010KT P6SM SCT035=

USA.gov is the U.S. government's official web portal to all federal, state and local government web resources and services.